createdAt,value
2022-11-18T00:02:54.579Z,9.10
2022-11-18T00:07:56.340Z,9.48
2022-11-18T00:13:16.631Z,8.75
2022-11-18T00:18:18.429Z,9.50
2022-11-18T00:23:20.188Z,10.35
2022-11-18T00:28:22.023Z,9.27
2022-11-18T00:33:24.570Z,8.15
2022-11-18T00:38:26.940Z,7.88
2022-11-18T00:43:29.282Z,9.20
2022-11-18T00:48:31.216Z,8.38
2022-11-18T00:53:33.009Z,10.55
2022-11-18T00:58:35.242Z,8.95
2022-11-18T01:03:37.034Z,10.45
2022-11-18T01:08:38.899Z,8.38
2022-11-18T01:13:40.673Z,8.18
2022-11-18T01:18:42.436Z,8.85
2022-11-18T01:23:45.354Z,9.10
2022-11-18T01:28:47.174Z,9.57
2022-11-18T01:33:48.939Z,9.00
2022-11-18T01:38:52.045Z,8.45
2022-11-18T01:44:25.910Z,10.35
2022-11-18T01:49:28.051Z,9.75
2022-11-18T01:54:39.818Z,8.75
2022-11-18T01:59:44.352Z,11.70
2022-11-18T02:04:49.998Z,10.75
2022-11-18T02:09:53.735Z,8.82
2022-11-18T02:14:55.677Z,9.02
2022-11-18T02:20:09.768Z,12.52
2022-11-18T02:25:39.339Z,10.48
2022-11-18T02:30:59.306Z,10.05
2022-11-18T02:36:13.272Z,11.20
2022-11-18T02:41:25.250Z,10.63
2022-11-18T02:46:34.430Z,10.13
2022-11-18T02:51:37.094Z,12.73
2022-11-18T02:56:39.200Z,11.10
2022-11-18T03:01:41.017Z,11.93
2022-11-18T03:06:52.109Z,11.40
2022-11-18T03:12:44.687Z,10.70
2022-11-18T03:18:11.011Z,9.95
2022-11-18T03:23:28.280Z,10.48
2022-11-18T03:28:47.294Z,12.25
2022-11-18T03:34:03.463Z,13.05
2022-11-18T03:39:10.074Z,11.23
2022-11-18T03:44:17.091Z,11.23
2022-11-18T03:49:30.299Z,13.25
2022-11-18T03:54:36.113Z,11.90
2022-11-18T04:00:06.504Z,12.32
2022-11-18T04:05:11.879Z,13.02
2022-11-18T04:10:17.002Z,11.85
2022-11-18T04:15:19.258Z,11.85
2022-11-18T04:20:22.545Z,14.43
2022-11-18T04:25:27.089Z,12.80
2022-11-18T04:30:29.078Z,12.50
2022-11-18T04:35:30.903Z,14.23
2022-11-18T04:40:32.696Z,13.20
2022-11-18T04:45:34.508Z,13.32
2022-11-18T04:50:36.292Z,14.38
2022-11-18T04:55:38.142Z,12.70
2022-11-18T05:00:40.157Z,15.90
2022-11-18T05:05:41.927Z,13.18
2022-11-18T05:10:43.686Z,14.25
2022-11-18T05:15:45.459Z,13.27
2022-11-18T05:20:47.216Z,12.23
2022-11-18T05:25:48.954Z,14.50
2022-11-18T05:30:50.736Z,16.98
2022-11-18T05:35:55.067Z,17.60
2022-11-18T05:40:57.557Z,17.00
2022-11-18T05:45:59.850Z,14.98
2022-11-18T05:51:01.604Z,13.40
2022-11-18T05:56:15.345Z,13.82
2022-11-18T06:01:22.796Z,14.73
2022-11-18T06:06:25.297Z,18.55
2022-11-18T06:11:29.117Z,15.95
2022-11-18T06:16:39.458Z,26.17
2022-11-18T06:21:43.845Z,23.20
2022-11-18T06:26:46.745Z,27.08
2022-11-18T06:31:48.554Z,26.95
2022-11-18T06:36:50.318Z,32.70
2022-11-18T06:41:55.202Z,32.38
2022-11-18T06:46:57.315Z,37.63
2022-11-18T06:51:59.124Z,37.42
2022-11-18T06:57:00.949Z,39.42
2022-11-18T07:02:02.798Z,40.70
2022-11-18T07:07:04.659Z,46.10
2022-11-18T07:12:06.553Z,41.42
2022-11-18T07:17:08.451Z,39.05
2022-11-18T07:22:10.239Z,42.20
2022-11-18T07:27:12.020Z,38.05
2022-11-18T07:32:13.818Z,46.50
2022-11-18T07:37:15.624Z,41.65
2022-11-18T07:42:17.419Z,37.70
2022-11-18T07:47:19.201Z,35.22
2022-11-18T07:52:20.988Z,32.75
2022-11-18T07:57:22.782Z,34.97
2022-11-18T08:02:24.566Z,34.28
2022-11-18T08:07:26.467Z,33.38
2022-11-18T08:12:30.793Z,30.00
2022-11-18T08:17:32.911Z,31.45
2022-11-18T08:22:34.753Z,36.03
2022-11-18T08:27:36.585Z,53.88
2022-11-18T08:32:38.437Z,45.15
2022-11-18T08:37:40.248Z,36.10
2022-11-18T08:42:42.010Z,33.70
2022-11-18T08:47:43.859Z,38.95
2022-11-18T08:52:45.670Z,37.72
2022-11-18T08:57:48.063Z,33.47
2022-11-18T09:02:50.275Z,33.67
2022-11-18T09:07:52.058Z,34.20
2022-11-18T09:12:54.812Z,33.25
2022-11-18T09:17:57.948Z,37.70
2022-11-18T09:22:59.730Z,30.85
2022-11-18T09:28:01.522Z,34.40
2022-11-18T09:33:03.547Z,39.53
2022-11-18T09:38:05.361Z,35.88
2022-11-18T09:43:20.872Z,37.88
2022-11-18T09:48:45.897Z,35.10
2022-11-18T09:53:47.915Z,34.70
2022-11-18T09:58:50.450Z,34.17
2022-11-18T10:03:52.308Z,35.67
2022-11-18T10:09:13.780Z,34.50
2022-11-18T10:14:49.717Z,31.08
2022-11-18T10:19:51.480Z,35.20
2022-11-18T10:24:55.375Z,37.65
2022-11-18T10:29:58.405Z,40.47
2022-11-18T10:35:00.176Z,38.72
2022-11-18T10:40:05.297Z,36.90
2022-11-18T10:45:27.435Z,40.20
2022-11-18T10:50:39.828Z,45.08
2022-11-18T10:55:41.584Z,40.53
2022-11-18T11:00:49.344Z,47.47
2022-11-18T11:06:33.212Z,50.60
2022-11-18T11:11:40.055Z,48.35
2022-11-18T11:16:52.106Z,53.37
2022-11-18T11:21:53.977Z,66.25
2022-11-18T11:32:55.094Z,66.55
2022-11-18T11:38:04.349Z,48.73
2022-11-18T11:43:24.764Z,46.10
2022-11-18T11:48:41.710Z,39.10
2022-11-18T11:53:46.607Z,33.17
2022-11-18T11:59:08.825Z,35.33
2022-11-18T12:04:22.735Z,34.23
2022-11-18T12:09:33.730Z,24.93
2022-11-18T12:14:46.853Z,23.97
2022-11-18T12:19:49.027Z,28.67
2022-11-18T12:24:50.957Z,30.10
2022-11-18T12:30:03.998Z,33.37
2022-11-18T12:35:25.505Z,39.00
2022-11-18T12:40:52.206Z,39.80
2022-11-18T12:45:57.137Z,34.20
2022-11-18T12:51:26.386Z,27.37
2022-11-18T12:56:33.504Z,24.97
2022-11-18T13:01:35.572Z,20.43
2022-11-18T13:06:39.207Z,23.57
2022-11-18T13:11:50.962Z,22.50
2022-11-18T13:17:11.372Z,22.60
2022-11-18T13:22:36.792Z,19.67
2022-11-18T13:27:58.426Z,22.07
2022-11-18T13:33:00.639Z,19.57
2022-11-18T13:38:03.245Z,19.33
2022-11-18T13:43:05.633Z,19.83
2022-11-18T13:48:12.666Z,23.00
2022-11-18T13:53:19.073Z,21.90
2022-11-18T13:58:55.651Z,22.20
2022-11-18T14:03:58.782Z,21.13
2022-11-18T14:09:26.715Z,22.80
2022-11-18T14:14:34.023Z,31.37
2022-11-18T14:19:36.811Z,34.70
2022-11-18T14:24:38.673Z,36.23
2022-11-18T14:29:49.663Z,40.70
2022-11-18T14:35:01.235Z,41.97
2022-11-18T14:40:03.154Z,38.37
2022-11-18T14:45:05.307Z,45.93
2022-11-18T14:50:14.959Z,40.30
2022-11-18T14:55:16.869Z,45.33
2022-11-18T15:00:19.744Z,41.83
2022-11-18T15:05:21.647Z,43.67
2022-11-18T15:10:23.490Z,42.43
2022-11-18T15:15:25.545Z,49.30
2022-11-18T15:20:27.497Z,47.97
2022-11-18T15:25:29.435Z,47.97
2022-11-18T15:30:31.244Z,54.20
2022-11-18T15:35:33.088Z,53.90
2022-11-18T15:40:35.198Z,54.33
2022-11-18T15:45:37.010Z,55.87
2022-11-18T15:50:39.637Z,60.30
2022-11-18T15:55:41.813Z,61.63
2022-11-18T16:00:45.079Z,63.97
2022-11-18T16:05:47.260Z,59.87
2022-11-18T16:11:13.204Z,67.07
2022-11-18T16:16:23.362Z,68.33
2022-11-18T16:21:26.667Z,77.87
2022-11-18T16:26:32.764Z,74.63
2022-11-18T16:31:40.859Z,74.87
2022-11-18T16:36:44.913Z,71.23
2022-11-18T16:41:46.742Z,80.37
2022-11-18T16:46:51.241Z,80.97
2022-11-18T16:51:55.191Z,85.27
2022-11-18T16:56:58.696Z,82.90
2022-11-18T17:02:01.097Z,88.57
2022-11-18T17:07:03.419Z,91.43
2022-11-18T17:12:05.866Z,86.07
2022-11-18T17:17:07.846Z,84.70
2022-11-18T17:22:09.665Z,83.40
2022-11-18T17:27:11.498Z,85.07
2022-11-18T17:32:13.337Z,87.10
2022-11-18T17:37:15.097Z,85.20
2022-11-18T17:42:19.171Z,79.57
2022-11-18T17:47:21.163Z,84.63
2022-11-18T17:52:22.960Z,83.27
2022-11-18T17:57:24.710Z,79.43
2022-11-18T18:02:26.549Z,84.53
2022-11-18T18:07:30.299Z,87.37
2022-11-18T18:12:50.816Z,86.40
2022-11-18T18:17:52.714Z,88.07
2022-11-18T18:22:54.591Z,89.70
2022-11-18T18:27:56.398Z,81.43
2022-11-18T18:32:58.269Z,83.63
2022-11-18T18:38:00.313Z,82.37
2022-11-18T18:43:02.099Z,72.20
2022-11-18T18:48:04.073Z,69.77
2022-11-18T18:53:05.874Z,88.82
2022-11-18T18:58:07.810Z,71.63
2022-11-18T19:03:09.611Z,75.17
2022-11-18T19:08:11.404Z,69.43
2022-11-18T19:13:13.194Z,65.03
2022-11-18T19:18:15.063Z,65.63
2022-11-18T19:23:18.147Z,71.03
2022-11-18T19:28:20.020Z,70.83
2022-11-18T19:33:21.886Z,63.57
2022-11-18T19:38:23.727Z,70.90
2022-11-18T19:43:27.285Z,72.60
2022-11-18T19:48:29.761Z,79.40
2022-11-18T19:53:35.163Z,72.53
2022-11-18T19:58:38.595Z,66.00
2022-11-18T20:03:44.896Z,70.17
2022-11-18T20:08:47.778Z,63.00
2022-11-18T20:13:50.278Z,62.60
2022-11-18T20:18:57.766Z,61.63
2022-11-18T20:24:04.586Z,59.70
2022-11-18T20:29:08.118Z,55.70
2022-11-18T20:34:14.314Z,52.90
2022-11-18T20:39:16.736Z,52.37
2022-11-18T20:44:18.679Z,54.77
2022-11-18T20:49:20.798Z,53.70
2022-11-18T20:54:22.718Z,51.90
2022-11-18T20:59:24.690Z,45.70
2022-11-18T21:04:26.509Z,47.67
2022-11-18T21:09:31.775Z,44.17
2022-11-18T21:14:33.576Z,41.47
2022-11-18T21:19:35.380Z,42.03
2022-11-18T21:24:37.909Z,33.63
2022-11-18T21:29:40.815Z,27.53
2022-11-18T21:34:42.599Z,30.10
2022-11-18T21:39:45.916Z,29.90
2022-11-18T21:44:49.302Z,29.40
2022-11-18T21:49:51.075Z,25.30
2022-11-18T21:54:52.891Z,28.93
2022-11-18T21:59:55.382Z,23.53
2022-11-18T22:04:58.162Z,25.50
2022-11-18T22:10:00.179Z,25.13
2022-11-18T22:15:01.983Z,21.93
2022-11-18T22:20:04.127Z,24.60
2022-11-18T22:25:06.686Z,24.87
2022-11-18T22:30:08.907Z,25.03
2022-11-18T22:35:10.768Z,25.33
2022-11-18T22:40:13.003Z,23.77
2022-11-18T22:45:15.809Z,22.20
2022-11-18T22:50:17.920Z,25.83
2022-11-18T22:55:20.256Z,23.90
2022-11-18T23:00:22.045Z,23.27
2022-11-18T23:05:23.885Z,22.40
2022-11-18T23:10:25.649Z,21.80
2022-11-18T23:15:27.453Z,19.93
2022-11-18T23:20:29.229Z,23.73
2022-11-18T23:25:31.900Z,23.30
2022-11-18T23:30:33.887Z,22.40
2022-11-18T23:35:35.768Z,24.60
2022-11-18T23:40:37.564Z,24.73
2022-11-18T23:45:39.378Z,20.03
2022-11-18T23:50:41.312Z,23.97
2022-11-18T23:55:43.135Z,23.33
